Tiempo atmosférico en la estación meteorológica de Madridejos, Toledo (690 m.)



Fecha
DESCASC
Temp. máxima en grados centígrados (hora)
DESCASC
Temp. mínima en grados centígrados (hora)
DESCASC
Temp. media en grados centígrados
DESCASC
Racha de viento máxima en m/sg (hora)
DESCASC
Velocidad máxima media en intervalos de 10 minutos(hora)
DESCASC
Precipitaciones diarias en mm
DESCASC
Precipitaciones de 00:00 a 06:00 en mm
DESCASC
Precipitaciones de 06:00 a 12:00 en mm
DESCASC
Precipitaciones de 12:00 a 18:00 en mm
DESCASC
Precipitaciones de 18:00 a 24:00 en mm
DESCASC
18-08-2019 36.2 (16:50) 18.6 (07:30) 27.4 15.28 (17:00) 7.78 (20:10) 0 0 0 0 0
17-08-2019 37.9 (17:20) 20.2 (08:00) 29.1 11.39 (16:20) 5.83 (14:30) 0 0 0 0 0
16-08-2019 37.1 (17:50) 17 (08:10) 27 11.94 (17:30) 6.11 (19:10) 0 0 0 0 0
15-08-2019 36.1 (18:00) 15.5 (00:00) 25.8 7.78 (01:50) 3.33 (19:40) 0 0 0 0 0
14-08-2019 33.9 (18:10) 12.7 (00:00) 23.3 9.72 (16:10) 4.44 (04:30) 0 0 0 0 0
13-08-2019 30.4 (17:40) 16.3 (00:00) 23.3 10.83 (14:10) 5 (02:40) 0 0 0 0 0
12-08-2019 27.8 (19:00) 13.5 (00:00) 20.6 12.5 (14:30) 5.83 (10:30) 0 0 0 0 0
11-08-2019 31.4 (15:50) 16 (00:00) 23.7 13.33 (18:20) 7.78 (18:20) 0 0 0 0 0
10-08-2019 33.7 (17:50) 17.6 (00:00) 25.7 12.5 (15:50) 5.28 (19:00) 0 0 0 0 0
09-08-2019 33.4 (18:20) 19.2 (00:00) 26.3 12.78 (12:40) 8.61 (12:40) 0 0 0 0 0
08-08-2019 35.1 (18:30) 17.3 (00:00) 26.2 13.06 (17:40) 5.83 (17:50) 0 0 0 0 0
07-08-2019 32 (15:50) 22.2 (00:00) 27.1 11.94 (18:30) 6.67 (14:40) 0 0 0 0 0
06-08-2019 36.4 (18:00) 18.5 (00:00) 27.5 10.83 (18:00) 6.39 (19:00) 0 0 0 0 0
05-08-2019 37.2 (17:50) 16.9 (00:00) 27.1 9.72 (15:20) 5.28 (22:10) 0 0 0 0 0
04-08-2019 36.3 (17:40) 18.9 (00:00) 27.6 10 (16:30) 5.28 (19:00) 0 0 0 0 0
03-08-2019 37.1 (17:20) 15.6 (00:00) 26.3 -- (--) -- (--) 0 0 0 0 0
02-08-2019 36.3 (18:30) 17.6 (00:00) 26.9 9.72 (00:30) 4.17 (00:10) 0 0 0 0 0
01-08-2019 -- (--) -- (--) -- -- (--) -- (--) -- -- -- 1 0
31-07-2019 -- (--) -- (--) -- -- (--) -- (--) -- -- -- -- --
30-07-2019 -- (--) -- (--) -- -- (--) -- (--) -- -- -- -- --
29-07-2019 -- (--) -- (--) -- -- (--) -- (--) -- -- -- -- --
28-07-2019 -- (--) -- (--) -- -- (--) -- (--) -- -- -- -- --
27-07-2019 -- (--) -- (--) -- -- (--) -- (--) -- -- -- -- --
26-07-2019 -- (--) -- (--) -- -- (--) -- (--) -- -- -- -- --
25-07-2019 -- (--) -- (--) -- -- (--) -- (--) -- -- -- -- --
24-07-2019 -- (--) -- (--) -- -- (--) -- (--) -- -- -- -- --
23-07-2019 -- (--) -- (--) -- -- (--) -- (--) -- -- -- -- --
22-07-2019 -- (--) -- (--) -- -- (--) -- (--) -- -- -- -- --
21-07-2019 37.6 (16:30) 21.2 (00:00) 29.4 13.61 (23:30) 9.17 (23:00) 0 0 0 0 0

Gráficas

Temp. máximas Temp. mínimas Temp. medias Precipitaciones Rachas de viento máximas Velocidades máximas media en intervalos de 10 minutos

Datos horarios

Fecha y hora oficial Temperatura (ºC) Velocidad del viento (km/h) Dirección del viento Racha (km/h) Dirección de racha Precipitación (mm) Presión (hPa) Tendencia (hPa) Humedad (%)
2019-08-19 23:00:00 26.9 12 Noroeste 25 Norte 0 935.1 1.3 27
2019-08-19 22:00:00 28.4 16 Oeste 35 Oeste 0 934.6 0.6 25
2019-08-19 21:00:00 31.2 17 Oeste 27 Oeste 0 934.1 -0.2 22
2019-08-19 20:00:00 32.4 12 Oeste 33 Sudoeste 0 933.8 -1 20
2019-08-19 19:00:00 34 18 Sudoeste 34 Oeste 0 934 -1.2 19
2019-08-19 18:00:00 34.1 18 Sudoeste 37 Sudoeste 0 934.3 -1.3 19
2019-08-19 17:00:00 34.2 17 Sudoeste 35 Oeste 0 934.8 -0.9 18
2019-08-19 16:00:00 33.9 19 Sudoeste 38 Sudoeste 0 935.2 -0.7 16
2019-08-19 15:00:00 33.2 14 Sudoeste 33 Oeste 0 935.6 -0.6 16
2019-08-19 14:00:00 32 15 Sur 35 Sudoeste 0 935.7 -0.4 16
2019-08-19 13:00:00 30.9 19 Sudoeste 36 Oeste 0 935.9 -0.2 20
2019-08-19 12:00:00 29.5 10 Sudeste 18 Sudeste 0 936.2 0.2 26
2019-08-19 11:00:00 27.8 3 Sur 26 Sudoeste 0 936.1 0.1 30
2019-08-19 10:00:00 24.4 6 Sur 19 Sudoeste 0 936.1 0.6 39
2019-08-19 09:00:00 20 7 Sudoeste 21 Sudoeste 0 936 0.4 42
2019-08-19 08:00:00 17.6 8 Sur 21 Sur 0 936 0.4 45
2019-08-19 07:00:00 17.9 3 Sudeste 18 Este 0 935.5 -0.3 41
2019-08-19 06:00:00 18.5 3 Noroeste 17 Nordeste 0 935.6 -0.4 41
2019-08-19 05:00:00 19.6 4 Sudoeste 20 Oeste 0 935.6 -0.4 37
2019-08-19 04:00:00 20.3 8 Oeste 26 Sudoeste 0 935.8 0.1 36
2019-08-19 03:00:00 23.5 8 Sur 25 Sudoeste 0 936 0.9 32
2019-08-19 02:00:00 23.6 4 Sudoeste 13 Sudeste 0 936 1.2 26
2019-08-19 01:00:00 24 2 Sudoeste 34 Oeste 0 935.7 1.9 24
2019-08-19 00:00:00 25 17 Oeste 36 Oeste 0 935.1 1.5 20
2019-08-18 23:00:00 25.5 14 Oeste 22 Oeste 0 934.8 1.1 19
2019-08-18 22:00:00 28.4 15 Oeste 36 Oeste 0 933.8 0.1 10
2019-08-18 21:00:00 31.8 22 Oeste 47 Oeste 0 933.6 0 8
2019-08-18 20:00:00 34.2 23 Oeste 42 Oeste 0 933.7 -0.1 9
2019-08-18 19:00:00 35 23 Sudoeste 47 Oeste 0 933.7 -0.4 12
2019-08-18 18:00:00 35.9 23 Sudoeste 50 Oeste 0 933.6 -1 11
2019-08-18 17:00:00 36 24 Oeste 55 Oeste 0 933.8 -1.2 12
2019-08-18 16:00:00 35.5 20 Oeste 44 Oeste 0 934.1 -1.3 13
2019-08-18 15:00:00 35.4 23 Sudoeste 51 Sudoeste 0 934.6 -1 14
2019-08-18 14:00:00 34.7 24 Oeste 39 Oeste 0 935 -0.4 15
2019-08-18 13:00:00 33.7 20 Sudoeste 40 Sudoeste 0 935.4 0.2 16
2019-08-18 12:00:00 31.8 10 Sudoeste 22 Sudoeste 0 935.6 0.9 16
2019-08-18 11:00:00 29.8 10 Sudoeste 18 Sudoeste 0 935.4 1 17
2019-08-18 10:00:00 26.2 2 Sudeste 19 Este 0 935.2 1.3 20
2019-08-18 09:00:00 20.6 5 Este 24 Norte 0 934.7 0.8 27
2019-08-18 08:00:00 21.4 6 Oeste 21 Oeste 0 934.4 0.2 24
2019-08-18 07:00:00 19.4 4 Oeste 21 Sudoeste 0 933.9 -0.4 30
2019-08-18 06:00:00 21.1 9 Sudoeste 13 Sudoeste 0 933.9 -0.6 28
2019-08-18 05:00:00 22.1 3 Sudoeste 9 Sur 0 934.2 -0.6 28
2019-08-18 04:00:00 24.2 5 Sur 16 Sudeste 0 934.3 -0.2 24
2019-08-18 03:00:00 24.1 3 Sudeste 14 Sudoeste 0 934.5 0.1 24
2019-08-18 02:00:00 25.6 9 Sudoeste 18 Oeste 0 934.8 0.4 23
2019-08-18 01:00:00 26.4 9 Oeste 16 Oeste 0 934.5 0.7 21
2019-08-18 00:00:00 27 10 Oeste 15 Oeste 0 934.4 0.9 20
2019-08-17 23:00:00 28.6 9 Sudoeste 16 Noroeste 0 934.4 0.9 18
2019-08-17 22:00:00 31.1 9 Noroeste 22 Oeste 0 933.8 -0.2 16
2019-08-17 21:00:00 35.4 6 Oeste 24 Sudoeste 0 933.5 -0.9 13
2019-08-17 20:00:00 36.8 13 Oeste 32 Oeste 0 933.5 -1.4 11
2019-08-17 19:00:00 37.5 14 Sudoeste 34 Sudoeste 0 934 -1.5 11
2019-08-17 18:00:00 37.7 12 Sudoeste 39 Sudoeste 0 934.4 -1.8 12
2019-08-17 17:00:00 37.2 10 Sudoeste 41 Sur 0 934.9 -1.7 13
2019-08-17 16:00:00 36.8 13 Sudoeste 34 Oeste 0 935.5 -1.7 13
2019-08-17 15:00:00 36.4 15 Sudoeste 38 Sudoeste 0 936.2 -1.5 13
2019-08-17 14:00:00 35.9 15 Sudoeste 38 Sudoeste 0 936.6 -1.1 15
2019-08-17 13:00:00 34.7 11 Sudeste 24 Sudeste 0 937.2 -0.6 16
2019-08-17 12:00:00 32.9 10 Sudeste 18 Sudeste 0 937.7 0.1 17
2019-08-17 11:00:00 30.2 8 Sudeste 16 Sur 0 937.7 0.4 20
2019-08-17 10:00:00 26.5 4 Sur 8 Sudoeste 0 937.8 0.8 26
2019-08-17 09:00:00 23.1 2 Sur 9 Sur 0 937.6 0.9 32
2019-08-17 08:00:00 20.3 5 Sudeste 25 Este 0 937.3 0.6 36
2019-08-17 07:00:00 20.9 4 Sudeste 11 Oeste 0 937 0.1 35
2019-08-17 06:00:00 21.5 8 Oeste 26 Oeste 0 936.7 -0.2 36
2019-08-17 05:00:00 23.4 11 Oeste 20 Oeste 0 936.7 -0.3 31
2019-08-17 04:00:00 23 8 Sudoeste 13 Sudoeste 0 936.9 -0.2 30
2019-08-17 03:00:00 23.2 8 Sudoeste 13 Sudoeste 0 936.9 0 27
2019-08-17 02:00:00 23.7 7 Sudoeste 12 Sudoeste 0 937 0.2 24
2019-08-17 01:00:00 25.1 8 Sudoeste 17 Oeste 0 937.1 1 22
2019-08-17 00:00:00 27.1 11 Oeste 16 Noroeste 0 936.9 1.2 20
2019-08-16 23:00:00 28.1 10 Oeste 24 Noroeste 0 936.8 1.5 17
2019-08-16 22:00:00 31.2 14 Oeste 30 Oeste 0 936.1 0.7 15
2019-08-16 21:00:00 34.3 18 Oeste 33 Sudoeste 0 935.7 0.1 14
2019-08-16 20:00:00 35.5 20 Sudoeste 38 Sudoeste 0 935.3 -1 13
2019-08-16 19:00:00 36.5 18 Sudoeste 38 Sudoeste 0 935.4 -1.4 13
2019-08-16 18:00:00 36.8 15 Sudoeste 43 Sur 0 935.6 -1.8 13
2019-08-16 17:00:00 36.7 18 Oeste 39 Sudoeste 0 936.3 -1.7 13
2019-08-16 16:00:00 36.2 7 Sur 32 Sur 0 936.8 -1.7 15
2019-08-16 15:00:00 35.1 6 Noroeste 19 Noroeste 0 937.4 -1.4 17
2019-08-16 14:00:00 33.4 4 Norte 17 Sudeste 0 938 -1 20
2019-08-16 13:00:00 31.1 6 Sur 13 Sudeste 0 938.5 -0.4 26
2019-08-16 12:00:00 28.2 4 Sudeste 13 Este 0 938.8 0.1 33
2019-08-16 11:00:00 24.5 5 Nordeste 22 Este 0 939 0.5 46
2019-08-16 10:00:00 22.8 6 Sudeste 23 Este 0 938.9 0.8 53
2019-08-16 09:00:00 19.7 6 Nordeste 19 Norte 0 938.7 0.8 61
2019-08-16 08:00:00 17.4 2 Nordeste 20 Este 0 938.5 0.6 56
2019-08-16 07:00:00 19.9 2 Sudeste 8 Sudeste 0 938.1 0.1 62
2019-08-16 06:00:00 20.2 4 Sudeste 24 Este 0 937.9 0 60
2019-08-16 05:00:00 21.1 10 Este 24 Este 0 937.9 -0.1 51
2019-08-16 04:00:00 21.5 4 Nordeste 29 Este 0 938 0.3 34
2019-08-16 03:00:00 22.1 10 Noroeste 19 Nordeste 0 937.9 0.1 28
2019-08-16 02:00:00 23.5 9 Oeste 20 Norte 0 938 0.3 25
2019-08-16 01:00:00 24.8 8 Sudoeste 12 Sudeste 0 937.7 0.5 24
2019-08-16 00:00:00 27.6 4 Sudeste 11 Sur 0 937.8 0.8 21
2019-08-15 23:00:00 29.7 8 Nordeste 14 Nordeste 0 937.7 0.9 18
2019-08-15 22:00:00 31.2 10 Nordeste 14 Nordeste 0 937.2 0.3 16
2019-08-15 21:00:00 33.2 7 Norte 18 Norte 0 937 0 14
2019-08-15 20:00:00 34.5 9 Norte 27 Norte 0 936.8 -0.7 13
2019-08-15 19:00:00 35 6 Norte 22 Nordeste 0 936.9 -1.1 13
2019-08-15 18:00:00 35.8 8 Noroeste 22 Nordeste 0 937 -1.5 12
2019-08-15 17:00:00 34.9 8 Norte 22 Noroeste 0 937.5 -1.5 12
2019-08-15 16:00:00 34.4 7 Este 24 Norte 0 938 -1.5 13
2019-08-15 15:00:00 33.9 8 Norte 19 Norte 0 938.5 -1.4 13
2019-08-15 14:00:00 33.1 8 Sudoeste 17 Sur 0 939 -1 14
2019-08-15 13:00:00 31.2 7 Norte 13 Norte 0 939.5 -0.4 17
2019-08-15 12:00:00 28.6 4 Norte 12 Noroeste 0 939.9 0.3 23
2019-08-15 11:00:00 26 3 Norte 9 Sudeste 0 940 0.7 30
2019-08-15 10:00:00 23.4 6 Sudeste 22 Este 0 939.9 0.9 36
2019-08-15 09:00:00 19.6 6 Sudeste 20 Sur 0 939.6 0.9 28
2019-08-15 08:00:00 16.2 7 Sur 22 Oeste 0 939.3 0.8 33
2019-08-15 07:00:00 16.2 5 Sudoeste 19 Sudoeste 0 939 0.4 32
2019-08-15 06:00:00 16.9 7 Nordeste 19 Este 0 938.7 -0.1 29
2019-08-15 05:00:00 18 7 Sudeste 19 Este 0 938.5 -0.8 28
2019-08-15 04:00:00 18.9 5 Sudoeste 15 Sudoeste 0 938.6 -0.6 28
2019-08-15 03:00:00 19.7 6 Oeste 22 Oeste 0 938.8 -0.4 25
2019-08-15 02:00:00 20.3 9 Oeste 28 Oeste 0 939.3 0.3 25
2019-08-15 01:00:00 22.7 4 Sur 8 Sudoeste 0 939.2 0.7 22
2019-08-15 00:00:00 24.1 3 Noroeste 13 Oeste 0 939.2 1.2 22
2019-08-14 23:00:00 26.1 5 Este 16 Norte 0 939 1.2 17
2019-08-14 22:00:00 28.7 6 Nordeste 19 Norte 0 938.5 0.4 14
2019-08-14 21:00:00 31.1 10 Nordeste 22 Norte 0 938 -0.1 13
2019-08-14 20:00:00 32.8 11 Norte 21 Noroeste 0 937.8 -0.8 12
2019-08-14 19:00:00 33.1 5 Este 22 Norte 0 938.1 -0.9 12
2019-08-14 18:00:00 33.3 7 Norte 24 Sudoeste 0 938.1 -1.7 12
2019-08-14 17:00:00 32.5 14 Norte 35 Oeste 0 938.6 -1.7 13
2019-08-14 16:00:00 32.6 13 Oeste 24 Noroeste 0 939 -1.8 13
2019-08-14 15:00:00 31.1 12 Norte 26 Noroeste 0 939.8 -1 15
2019-08-14 14:00:00 30.6 5 Sudoeste 19 Oeste 0 940.3 -0.4 16
2019-08-14 13:00:00 27.9 4 Norte 25 Nordeste 0 940.8 -0.1 26
2019-08-14 12:00:00 25.8 5 Este 20 Este 0 940.8 0.2 41
2019-08-14 11:00:00 22.7 5 Este 22 Nordeste 0 940.7 0.3 51
2019-08-14 10:00:00 20.8 2 Este 17 Norte 0 940.9 0.9 53
2019-08-14 09:00:00 15.9 4 Noroeste 12 Norte 0 940.6 0.7 34
2019-08-14 08:00:00 12.8 4 Sudoeste 14 Nordeste 0 940.4 0.6 40
2019-08-14 07:00:00 13.7 6 Norte 18 Nordeste 0 940 0.2 36
2019-08-14 06:00:00 14.8 6 Este 19 Norte 0 939.9 0.1 35
2019-08-14 05:00:00 15.5 5 Norte 21 Oeste 0 939.8 0.3 33
2019-08-14 04:00:00 17.4 6 Norte 28 Norte 0 939.8 0.4 30
2019-08-14 03:00:00 16.9 6 Sudoeste 24 Oeste 0 939.8 0.5 30
2019-08-14 02:00:00 18.5 7 Oeste 9 Sudoeste 0 939.5 0.5 29
2019-08-14 01:00:00 19.1 4 Oeste 8 Oeste 0 939.4 1.1 28
2019-08-14 00:00:00 22.6 3 Nordeste 6 Nordeste 0 939.3 1.4 22
2019-08-13 23:00:00 24.1 4 Este 12 Este 0 939 1.4 20
2019-08-13 22:00:00 25.8 6 Norte 24 Norte 0 938.3 0.6 18
2019-08-13 21:00:00 27.9 15 Norte 27 Norte 0 937.9 -0.1 17
2019-08-13 20:00:00 29.3 13 Norte 24 Noroeste 0 937.6 -0.8 16
2019-08-13 19:00:00 29.9 13 Noroeste 36 Noroeste 0 937.7 -1.3 15
2019-08-13 18:00:00 30.2 11 Noroeste 27 Noroeste 0 938 -1.4 16
2019-08-13 17:00:00 29.8 8 Oeste 27 Noroeste 0 938.4 -1.3 17
2019-08-13 16:00:00 28.5 7 Noroeste 26 Noroeste 0 939 -0.9 19
2019-08-13 15:00:00 27.9 8 Norte 39 Noroeste 0 939.4 -0.5 22
2019-08-13 14:00:00 26.3 6 Nordeste 29 Nordeste 0 939.7 -0.2 30
2019-08-13 13:00:00 25.1 -- -- -- -- 0 939.9 0.2 41
2019-08-13 12:00:00 23.7 10 Este 25 Este 0 939.9 0.5 50
2019-08-13 11:00:00 21.8 10 Nordeste 25 Este 0 939.9 0.7 56
2019-08-13 10:00:00 19.8 11 Nordeste 24 Norte 0 939.7 1 48
2019-08-13 09:00:00 17.8 13 Nordeste 23 Norte 0 939.4 0.7 47
2019-08-13 08:00:00 16.5 14 Norte 29 Norte 0 939.2 0.5 44
2019-08-13 07:00:00 17.5 16 Norte 27 Norte 0 938.7 -0.2 39
2019-08-13 06:00:00 17.6 11 Noroeste 25 Oeste 0 938.7 -0.4 42
2019-08-13 05:00:00 16.7 5 Noroeste -- -- 0 938.7 -0.3 45
2019-08-13 04:00:00 18 7 Nordeste 21 Nordeste 0 938.9 0.2 44
2019-08-13 03:00:00 18.5 15 Nordeste 25 Nordeste 0 939.1 0.3 31
2019-08-13 02:00:00 19.8 8 Nordeste 25 Nordeste 0 939 0.4 23
2019-08-13 01:00:00 17.8 5 Norte 22 Nordeste 0 938.7 0.8 24
2019-08-13 00:00:00 18.8 4 Noroeste 15 Noroeste 0 938.8 1.4 22
2019-08-12 23:00:00 21 10 Noroeste 17 Noroeste 0 938.6 1.6 20
2019-08-12 22:00:00 23.4 10 Noroeste 24 Norte 0 937.9 0.9 17
2019-08-12 21:00:00 25.9 14 Noroeste 27 Norte 0 937.4 0.1 14
2019-08-12 20:00:00 26.9 9 Norte -- -- 0 937 -0.9 13
2019-08-12 19:00:00 27.8 4 Noroeste 26 Norte 0 937 -1.3 13
2019-08-12 18:00:00 27 8 Norte 25 Noroeste 0 937.3 -1.5 13
2019-08-12 17:00:00 26.6 8 Noroeste 32 Norte 0 937.9 -1.2 16
2019-08-12 16:00:00 26 10 Norte 36 Norte 0 938.3 -1.1 15
2019-08-12 15:00:00 25.3 10 Nordeste 45 Nordeste 0 938.8 -0.8 20
2019-08-12 14:00:00 23.9 12 Norte 36 Noroeste 0 939.1 -0.3 23
2019-08-12 13:00:00 23 17 Norte 36 Norte 0 939.4 0.5 27
2019-08-12 12:00:00 21.4 17 Norte 40 Norte 0 939.6 1.2 33
2019-08-12 11:00:00 19.9 20 Norte 35 Norte 0 939.4 1.4 37
2019-08-12 10:00:00 18.6 16 Noroeste 31 Norte 0 938.9 1.4 39
2019-08-12 09:00:00 15.7 14 Noroeste 23 Noroeste 0 938.4 0.9 46
2019-08-12 08:00:00 13.5 12 Oeste 21 Noroeste 0 938 0.8 50
2019-08-12 07:00:00 13.9 15 Oeste 24 Noroeste 0 937.5 0 47
2019-08-12 06:00:00 15 12 Noroeste 22 Noroeste 0 937.5 -0.3 41
2019-08-12 05:00:00 15.7 14 Noroeste 27 Noroeste 0 937.2 -0.9 33
2019-08-12 04:00:00 17.4 15 Noroeste 28 Noroeste 0 937.5 -0.5 29
2019-08-12 03:00:00 18.2 15 Oeste 27 Oeste 0 937.8 0 28
2019-08-12 02:00:00 19.9 13 Noroeste 28 Oeste 0 938.1 0.6 25
2019-08-12 01:00:00 20.4 14 Noroeste 30 Oeste 0 938 1.4 21
2019-08-12 00:00:00 21 12 Noroeste 32 Oeste 0 937.8 1.9 21
2019-08-11 23:00:00 22.2 12 Noroeste 35 Oeste 0 937.5 2.1 22
2019-08-11 22:00:00 24 17 Noroeste 44 Oeste 0 936.6 0.8 25
2019-08-11 21:00:00 26 25 Noroeste 42 Oeste 0 935.9 0.2 21
2019-08-11 20:00:00 29.3 15 Oeste 39 Sudoeste 0 935.4 -0.4 11
2019-08-11 19:00:00 29.1 27 Oeste 48 Oeste 0 935.8 -0.4 8
2019-08-11 18:00:00 30 23 Sudoeste 41 Sudoeste 0 935.7 -0.9 12
2019-08-11 17:00:00 30.7 22 Sudoeste 48 Oeste 0 935.8 -1.2 13
2019-08-11 16:00:00 30.9 23 Sudoeste 42 Oeste 0 936.2 -1.2 12
2019-08-11 15:00:00 30.2 19 Oeste 40 Oeste 0 936.6 -1 15
2019-08-11 14:00:00 29 6 Sudeste 28 Sudoeste 0 937 -0.5 20
2019-08-11 13:00:00 28 6 Noroeste 16 Sudoeste 0 937.4 0.1 22
2019-08-11 12:00:00 26.7 5 Sur 26 Este 0 937.6 0.5 23
2019-08-11 11:00:00 25.2 8 Sudeste 22 Este 0 937.5 0.6 26
2019-08-11 10:00:00 24.3 0 Calma 8 Sudeste 0 937.3 0.6 28
2019-08-11 09:00:00 20.7 4 Este 21 Oeste 0 937.1 0.8 30
2019-08-11 08:00:00 16.7 10 Noroeste 23 Oeste 0 936.9 1 37
2019-08-11 07:00:00 16.7 14 Oeste 21 Oeste 0 936.7 0.5 37
2019-08-11 06:00:00 17.4 8 Sudoeste 21 Oeste 0 936.3 -0.2 35
2019-08-11 05:00:00 17.9 8 Oeste 22 Sudoeste 0 935.9 -0.9 35
2019-08-11 04:00:00 19.9 9 Sudoeste 23 Oeste 0 936.2 -0.9 30
2019-08-11 03:00:00 20.4 7 Oeste 23 Oeste 0 936.5 -0.7 29
2019-08-11 02:00:00 21.1 9 Noroeste 17 Noroeste 0 936.8 -0.2 28
2019-08-11 01:00:00 22.3 9 Noroeste 19 Norte 0 937.1 0.9 27
2019-08-11 00:00:00 24.5 13 Noroeste 24 Norte 0 937.2 1.2 25
2019-08-10 23:00:00 26.3 14 Noroeste 27 Norte 0 937 1.1 24
2019-08-10 22:00:00 28.6 13 Oeste 29 Oeste 0 936.2 -0.1 18
2019-08-10 21:00:00 31.6 16 Oeste 33 Oeste 0 936 -0.7 16
2019-08-10 20:00:00 32.7 16 Oeste 37 Oeste 0 935.9 -1.6 20
2019-08-10 19:00:00 33.6 19 Sudoeste 44 Oeste 0 936.3 -1.9 20
2019-08-10 18:00:00 33.4 15 Sudoeste 39 Oeste 0 936.7 -1.8 21
2019-08-10 17:00:00 32.9 13 Sudoeste 35 Oeste 0 937.5 -1.7 23
2019-08-10 16:00:00 32.2 13 Sudoeste 45 Sudoeste 0 938.2 -1.6 22
2019-08-10 15:00:00 31.6 13 Sudeste 32 Sudeste 0 938.5 -1.6 26
2019-08-10 14:00:00 28.6 7 Este 22 Sudeste 0 939.2 -0.9 37
2019-08-10 13:00:00 27.3 2 Oeste 15 Norte 0 939.8 -0.4 39
2019-08-10 12:00:00 25.3 5 Noroeste 15 Sur 0 940.1 0 45
2019-08-10 11:00:00 24.4 6 Sudeste 22 Este 0 940.1 0.2 54
2019-08-10 10:00:00 22.4 4 Sur 17 Este 0 940.2 0.7 60
2019-08-10 09:00:00 19.6 4 Este 18 Este 0 940.1 1 68
2019-08-10 08:00:00 17.7 4 Norte 19 Norte 0 939.9 1.1 75
2019-08-10 07:00:00 18.1 2 Nordeste 17 Nordeste 0 939.5 0.7 76
2019-08-10 06:00:00 18 6 Nordeste 17 Nordeste 0 939.1 0.2 73
2019-08-10 05:00:00 18.9 0 Calma 18 Este 0 938.8 -0.2 71
2019-08-10 04:00:00 19.7 0 Calma 8 Noroeste 0 938.8 -0.1 68
2019-08-10 03:00:00 20.3 2 Este 21 Este 0 938.9 0.2 69
2019-08-10 02:00:00 20.8 5 Oeste 9 Noroeste 0 939 1.1 67
2019-08-10 01:00:00 21.7 6 Noroeste 16 Noroeste 0 938.9 1.6 65
2019-08-10 00:00:00 22.6 11 Noroeste 44 Oeste 0 938.7 1.8 64
2019-08-09 23:00:00 24 21 Noroeste 41 Oeste 0 937.9 1.4 63
2019-08-09 22:00:00 26.2 26 Noroeste 39 Norte 0 937.3 0.9 55
2019-08-09 21:00:00 29.9 21 Oeste 44 Oeste 0 936.9 0.5 34
2019-08-09 20:00:00 31.4 26 Oeste 45 Oeste 0 936.5 -0.4 32
2019-08-09 19:00:00 32.7 20 Sudoeste 44 Oeste 0 936.4 -0.7 25
2019-08-09 18:00:00 33 21 Sudoeste 45 Oeste 0 936.4 -1.1 26
2019-08-09 17:00:00 32.9 21 Sudoeste 46 Oeste 0 936.9 -0.9 26
2019-08-09 16:00:00 32.6 23 Sudoeste 41 Sudoeste 0 937.1 -0.9 26
2019-08-09 15:00:00 32.2 21 Oeste 41 Oeste 0 937.5 -0.2 29
2019-08-09 14:00:00 31.3 22 Oeste 44 Sudoeste 0 937.8 0.3 29
2019-08-09 13:00:00 29.9 26 Sudoeste 46 Sudoeste 0 938 0.6 30
2019-08-09 12:00:00 28.6 27 Sudoeste 41 Sudoeste 0 937.7 0.6 36
2019-08-09 11:00:00 27 15 Sudoeste 29 Sudoeste 0 937.5 0.5 43
2019-08-09 10:00:00 24.6 12 Sudoeste 25 Sudoeste 0 937.4 0.8 50
2019-08-09 09:00:00 22.7 7 Sudoeste 13 Sudoeste 0 937.1 0.8 55
2019-08-09 08:00:00 20 5 Oeste 18 Este 0 937 0.8 54
2019-08-09 07:00:00 19.4 2 Este 21 Sudoeste 0 936.6 0.4 47
2019-08-09 06:00:00 20.5 4 Sudoeste 7 Sudoeste 0 936.3 0.3 44
2019-08-09 05:00:00 20.7 3 Noroeste 8 Noroeste 0 936.2 0.5 42
2019-08-09 04:00:00 21.4 6 Oeste 13 Oeste 0 936.2 0.9 40
2019-08-09 03:00:00 23 7 Oeste 14 Oeste 0 936 0.9 37
2019-08-09 02:00:00 23.8 9 Sudoeste 20 Sudoeste 0 935.7 0.8 34
2019-08-09 01:00:00 25 10 Sudoeste 18 Oeste 0 935.3 1 31
2019-08-09 00:00:00 26 13 Oeste 19 Oeste 0 935.1 1 29
2019-08-08 23:00:00 27.6 13 Oeste 18 Oeste 0 934.9 0.9 26
2019-08-08 22:00:00 30.4 10 Oeste 26 Oeste 0 934.3 0.2 22
2019-08-08 21:00:00 33.1 13 Sudoeste 33 Sudoeste 0 934.1 -0.2 19
2019-08-08 20:00:00 34.1 17 Sudoeste 41 Sudoeste 0 934 -0.8 17
2019-08-08 19:00:00 34.7 15 Sudoeste 45 Oeste 0 934.1 -1.3 17
2019-08-08 18:00:00 34.9 17 Sudoeste 47 Sudoeste 0 934.3 -1.5 19
2019-08-08 17:00:00 34.3 17 Sudoeste 37 Sudoeste 0 934.8 -1.7 19
2019-08-08 16:00:00 33.4 16 Sudoeste 35 Sudoeste 0 935.4 -1.5 22
2019-08-08 15:00:00 31.4 9 Este 26 Sudeste 0 935.8 -1.3 25
2019-08-08 14:00:00 30.4 10 Sur 25 Sudeste 0 936.5 -0.4 27
2019-08-08 13:00:00 29.2 3 Sudeste 16 Sudeste 0 936.9 0 29
2019-08-08 12:00:00 27.8 3 Sudeste 14 Sudeste 0 937.1 0.4 32
2019-08-08 11:00:00 25.7 3 Sudoeste 20 Este 0 936.9 0.5 39
2019-08-08 10:00:00 24.1 5 Sudeste 18 Este 0 936.9 0.5 40
2019-08-08 09:00:00 20.9 3 Oeste 19 Sur 0 936.7 0.6 49
2019-08-08 08:00:00 17.5 10 Sur 21 Sudoeste 0 936.4 0 57
2019-08-08 07:00:00 17.3 6 Sudoeste 19 Sudoeste 0 936.4 -0.1 58
2019-08-08 06:00:00 17.9 3 Sudoeste 21 Sur 0 936.1 -0.4 57
2019-08-08 05:00:00 18 7 Sudoeste 19 Sudoeste 0 936.4 -0.2 57
2019-08-08 04:00:00 18.9 6 Oeste 9 Sudoeste 0 936.5 -0.1 53
2019-08-08 03:00:00 20 3 Sur 8 Oeste 0 936.5 -0.2 50
2019-08-08 02:00:00 19.8 5 Oeste 7 Oeste 0 936.6 0.4 47
2019-08-08 01:00:00 21.5 4 Sudoeste 13 Norte 0 936.6 1.1 45
2019-08-08 00:00:00 22.4 6 Noroeste 13 Norte 0 936.7 1.5 42
2019-08-07 23:00:00 24.1 5 Noroeste 22 Norte 0 936.2 0.9 38
2019-08-07 22:00:00 25.3 11 Noroeste 26 Norte 0 935.5 0.4 36
2019-08-07 21:00:00 26.2 14 Noroeste 31 Norte 0 935.2 0.1 33
2019-08-07 20:00:00 27 20 Noroeste 36 Norte 0 935.3 2.1 32
2019-08-07 19:00:00 27.1 21 Noroeste 43 Oeste 0 935.1 -0.1 31
2019-08-07 18:00:00 28 22 Noroeste 41 Oeste 0 935.1 -0.2 28
2019-08-07 17:00:00 28.7 23 Norte 40 Oeste 0 933.2 -2.3 26
2019-08-07 16:00:00 31.3 17 Oeste 36 Oeste 0 935.2 0 19
2019-08-07 15:00:00 31.2 19 Oeste 41 Oeste 0 935.3 0.3 19
2019-08-07 14:00:00 30.6 18 Oeste 39 Oeste 0 935.5 0.8 21
2019-08-07 13:00:00 30.5 15 Oeste 32 Sudoeste 0 935.2 0.6 21
2019-08-07 12:00:00 29.3 15 Oeste 33 Oeste 0 935 1 21
2019-08-07 11:00:00 27 13 Sudoeste 32 Sudoeste 0 934.7 1.1 30
2019-08-07 10:00:00 24.8 14 Sudoeste 31 Sudoeste 0 934.6 1.2 37
2019-08-07 09:00:00 22.8 8 Sudoeste 30 Sudoeste 0 934 0.7 43
2019-08-07 08:00:00 22.7 14 Sudoeste 32 Sudoeste 0 933.6 0.3 40
2019-08-07 07:00:00 23 9 Sudoeste 32 Sudoeste 0 933.4 0.3 36
2019-08-07 06:00:00 22.8 8 Sudoeste 17 Oeste 0 933.3 0 31
2019-08-07 05:00:00 22.5 9 Sudoeste 20 Oeste 0 933.3 -0.1 27
2019-08-07 04:00:00 23.7 10 Oeste 26 Oeste 0 933.1 -0.2 22
2019-08-07 03:00:00 23.5 10 Sudoeste 25 Oeste 0 933.3 0 21
2019-08-07 02:00:00 23.6 5 Sudoeste 12 Sudeste 0 933.4 0.5 21
2019-08-07 01:00:00 24.6 5 Sudoeste 20 Oeste 0 933.3 0.8 19
2019-08-07 00:00:00 25.2 9 Oeste 18 Oeste 0 933.3 1.1 16
2019-08-06 23:00:00 26.6 13 Oeste 22 Oeste 0 932.9 0.8 15
2019-08-06 22:00:00 29.3 16 Oeste 32 Oeste 0 932.5 0.3 13
2019-08-06 21:00:00 33 16 Sudoeste 33 Sudoeste 0 932.2 -0.5 11
2019-08-06 20:00:00 34.7 18 Oeste 38 Sudoeste 0 932.1 -1 9
2019-08-06 19:00:00 35.4 23 Sudoeste 37 Sudoeste 0 932.2 -1.8 8
2019-08-06 18:00:00 36.3 22 Oeste 39 Oeste 0 932.7 -1.9 7
2019-08-06 17:00:00 35.9 17 Sudoeste 36 Sudoeste 0 933.1 -1.8 9
2019-08-06 16:00:00 34.8 15 Sudoeste 34 Sudoeste 0 934 -1.2 9
2019-08-06 15:00:00 34.7 21 Oeste 38 Sudoeste 0 934.6 -1.1 9
2019-08-06 14:00:00 33.4 20 Sudoeste 33 Sudoeste 0 934.9 -0.8 10
2019-08-06 13:00:00 32.6 12 Sudoeste 37 Sudoeste 0 935.2 -0.5 11
2019-08-06 12:00:00 31.5 12 Sudoeste 27 Oeste 0 935.7 0.3 16
2019-08-06 11:00:00 29.2 9 Sudoeste 16 Sudoeste 0 935.7 0.7 17
2019-08-06 10:00:00 26.1 3 Norte 8 Norte 0 935.7 0.6 18
2019-08-06 09:00:00 22.1 7 Oeste 24 Sudoeste 0 935.4 0.3 22
2019-08-06 08:00:00 19.1 6 Sur 22 Oeste 0 935 -0.2 24
2019-08-06 07:00:00 20.4 7 Sudoeste 26 Oeste 0 935.1 -0.1 22
2019-08-06 06:00:00 21.2 10 Sudoeste 24 Sudoeste 0 935.1 0.1 21
2019-08-06 05:00:00 22.4 4 Sur 24 Sur 0 935.2 0.2 19
2019-08-06 04:00:00 22.1 7 Sudoeste 22 Sudoeste 0 935.2 0.2 18
2019-08-06 03:00:00 21.9 6 Sudoeste 16 Norte 0 935 0.3 19
2019-08-06 02:00:00 21.5 9 Oeste 12 Norte 0 935 0.7 21
2019-08-06 01:00:00 23.7 6 Noroeste 13 Norte 0 935 1.3 17
2019-08-06 00:00:00 26.3 10 Noroeste 21 Oeste 0 934.7 1.5 14
2019-08-05 23:00:00 28.4 12 Oeste 28 Oeste 0 934.3 1.3 13
2019-08-05 22:00:00 31.1 18 Oeste 28 Oeste 0 933.7 0.5 12
2019-08-05 21:00:00 34.6 14 Oeste 30 Sudoeste 0 933.2 -0.3 10
2019-08-05 20:00:00 36 12 Sudoeste 33 Sudoeste 0 933 -1 10
2019-08-05 19:00:00 36.5 15 Oeste 32 Sudoeste 0 933.2 -1.4 9
2019-08-05 18:00:00 36.5 10 Sur 34 Sur 0 933.5 -1.8 11
2019-08-05 17:00:00 36.4 8 Oeste 32 Sur 0 934 -1.9 11
2019-08-05 16:00:00 35.8 9 Sudoeste 35 Este 0 934.6 -2.1 10
2019-08-05 15:00:00 33.6 6 Nordeste 24 Sudeste 0 935.3 -1.6 15
2019-08-05 14:00:00 33.2 11 Este 23 Este 0 935.9 -0.8 16
2019-08-05 13:00:00 32.1 6 Sudeste 15 Sudeste 0 936.7 -0.1 17
2019-08-05 12:00:00 29.6 5 Nordeste 13 Este 0 936.9 0.2 21
2019-08-05 11:00:00 27.9 6 Este 11 Este 0 936.7 0.1 19
2019-08-05 10:00:00 25.4 2 Este 6 Este 0 936.8 0.7 21
2019-08-05 09:00:00 20.4 4 Oeste 23 Oeste 0 936.7 0.7 27
2019-08-05 08:00:00 17 6 Noroeste 20 Oeste 0 936.6 0.5 29
2019-08-05 07:00:00 18 0 Calma 7 Sudeste 0 936.1 0.1 27
2019-08-05 06:00:00 20.8 4 Sudeste 22 Este 0 936 -0.2 23
2019-08-05 05:00:00 21.7 5 Sur 12 Sudeste 0 936.1 -0.2 21
2019-08-05 04:00:00 20.4 10 Oeste 24 Oeste 0 936 0 22
2019-08-05 03:00:00 22.7 6 Sudoeste 11 Sudoeste 0 936.2 0.5 19
2019-08-05 02:00:00 23.7 8 Sudoeste 14 Oeste 0 936.3 0.8 18
2019-08-05 01:00:00 24.8 8 Sudoeste 16 Oeste 0 936 1.1 16
2019-08-05 00:00:00 26.6 12 Oeste 22 Oeste 0 935.7 1.3 14
2019-08-04 23:00:00 28.2 16 Oeste 21 Oeste 0 935.5 1.4 14
2019-08-04 22:00:00 30.4 15 Oeste 22 Oeste 0 934.9 0.9 13
2019-08-04 21:00:00 34 13 Oeste 28 Oeste 0 934.4 0.2 11
2019-08-04 20:00:00 35.3 15 Oeste 35 Sudoeste 0 934.1 -0.5 11
2019-08-04 19:00:00 36 19 Oeste 31 Oeste 0 934 -1 11
2019-08-04 18:00:00 35.9 7 Sudoeste 36 Sudoeste 0 934.2 -1.3 11
2019-08-04 17:00:00 35.8 8 Sudoeste 36 Oeste 0 934.6 -1.2 12
2019-08-04 16:00:00 35.4 14 Oeste 34 Sudoeste 0 935 -1.3 12
2019-08-04 15:00:00 34.7 13 Sudoeste 34 Sudoeste 0 935.5 -0.9 13
2019-08-04 14:00:00 34 16 Sudoeste 32 Oeste 0 935.8 -0.7 14
2019-08-04 13:00:00 33 8 Sudeste 21 Sudeste 0 936.3 -0.2 14
2019-08-04 12:00:00 31.9 8 Sudeste 16 Sur 0 936.4 0 15
2019-08-04 11:00:00 29 4 Sur 11 Sudeste 0 936.5 0.5 17
2019-08-04 10:00:00 25 4 Sur 10 Sudeste 0 936.5 0.9 23
2019-08-04 09:00:00 22.3 3 Sudeste 19 Este 0 936.4 0.9 24
2019-08-04 08:00:00 19.1 5 Noroeste 8 Noroeste 0 936 0.7 29
2019-08-04 07:00:00 19.6 4 Oeste 8 Oeste 0 935.6 0.3 28
2019-08-04 06:00:00 19.9 5 Sudoeste 7 Sudoeste 0 935.5 0.4 27
2019-08-04 05:00:00 21.9 5 Sudoeste 23 Sudoeste 0 935.3 0.2 23
2019-08-04 04:00:00 22.6 4 Sur 10 Sudeste 0 935.3 0.5 23
2019-08-04 03:00:00 22.3 7 Sudoeste 12 Sudoeste 0 935.1 0.6 20
2019-08-04 02:00:00 23.3 7 Oeste 12 Oeste 0 935.1 0.9 19
2019-08-04 01:00:00 24.2 8 Oeste 14 Oeste 0 934.8 1.3 17
2019-08-04 00:00:00 25.3 8 Oeste 17 Noroeste 0 934.5 1.5 17
2019-08-03 23:00:00 27.6 11 Noroeste 20 Noroeste 0 934.2 1.3 14
2019-08-03 22:00:00 30.5 13 Oeste 24 Sudoeste 0 933.5 0.3 13
2019-08-03 21:00:00 34.6 13 Sudoeste 34 Oeste 0 933 -0.5 10
2019-08-03 20:00:00 36.1 13 Oeste 32 Sudoeste 0 932.9 -1.2 9
2019-08-03 19:00:00 36.7 16 Sudoeste 28 Oeste 0 933.2 -1.5 10
2019-08-03 18:00:00 36.7 22 Sudoeste 42 Sudoeste 0 933.5 -1.6 10
2019-08-03 17:00:00 36.6 15 Sur 32 Sudoeste 0 934.1 -1.5 10
2019-08-03 16:00:00 36.3 13 Sudoeste 33 Sudoeste 0 934.7 -1.3 10
2019-08-03 15:00:00 34.7 7 Sudeste -- -- 0 935.1 -1.2 13
2019-08-03 14:00:00 33.8 6 Este 19 Sudeste 0 935.6 -0.8 13
2019-08-03 13:00:00 32.2 8 Sudeste 17 Sudeste 0 936 -0.3 16
2019-08-03 12:00:00 29.4 5 Sudeste -- -- 0 936.3 0.2 25
2019-08-03 11:00:00 26.5 -- -- -- -- 0 936.4 0.5 36
2019-08-03 10:00:00 23.1 8 Este -- -- 0 936.3 0.8 48
2019-08-03 09:00:00 19 2 Sudoeste 20 Oeste 0 936.1 0.9 46
2019-08-03 08:00:00 15.6 9 Oeste -- -- 0 935.9 0.7 44
2019-08-03 07:00:00 18.9 4 Este 20 Este 0 935.5 0.4 60
2019-08-03 06:00:00 19.2 10 Este 14 Este 0 935.2 -0.1 58
2019-08-03 05:00:00 20.3 9 Nordeste 19 Nordeste 0 935.2 -0.1 39
2019-08-03 04:00:00 21.7 4 Nordeste -- -- 0 935.1 -0.2 22
2019-08-03 03:00:00 22.1 -- -- -- -- 0 935.3 0.2 21
2019-08-03 02:00:00 22.4 4 Oeste 12 Norte 0 935.3 0.5 22
2019-08-03 01:00:00 24.1 9 Oeste 17 Oeste 0 935.3 1.1 19
2019-08-03 00:00:00 26.2 12 Norte 18 Norte 0 935.1 1.1 19
2019-08-02 23:00:00 28.6 9 Norte 20 Noroeste 0 934.8 1.2 17
2019-08-02 22:00:00 30.7 12 Oeste 18 Noroeste 0 934.2 0.1 13
2019-08-02 21:00:00 34.7 9 Sudoeste -- -- 0 934 -0.5 10
2019-08-02 20:00:00 35.2 14 Este 30 Sudeste 0 933.6 -1.3 10
2019-08-02 19:00:00 36.2 14 Sur 30 Sudeste 0 934.1 -1.4 11
2019-08-02 18:00:00 35.6 7 Sudeste 28 Sudoeste 0 934.5 -1.4 12
2019-08-02 17:00:00 36 8 Sur 31 Sudeste 0 934.9 -1.4 12
2019-08-02 16:00:00 35.2 5 Sudeste 28 Sur 0 935.5 -1.2 12
2019-08-02 15:00:00 34 10 Sudoeste 26 Sudeste 0 935.9 -0.9 13
2019-08-02 14:00:00 32.7 8 Nordeste 20 Sur 0 936.3 -0.5 14
2019-08-02 13:00:00 32.7 6 Sudeste 19 Sur 0 936.7 0 14
2019-08-02 12:00:00 30 3 Este 11 Nordeste 0 936.8 0.4 19
2019-08-02 11:00:00 28.1 4 Sudeste 8 Sur 0 936.8 0.9 21
2019-08-02 10:00:00 25.8 3 Sudeste 8 Este 0 936.7 1.1 24
2019-08-02 09:00:00 20.6 4 Sur 20 Sudoeste 0 936.4 1.1 34
2019-08-02 08:00:00 18 4 Sudoeste 22 Sudoeste 0 935.9 0.7 35
2019-08-02 07:00:00 18.2 3 Sur 19 Nordeste 0 935.6 0.5 31
2019-08-02 06:00:00 18.3 4 Sudeste 18 Este 0 935.3 0.2 31
2019-08-02 05:00:00 18.6 6 Oeste 21 Sudoeste 0 935.2 -0.1 30
2019-08-02 04:00:00 20.4 8 Sudoeste 10 Sudoeste 0 935.1 0.1 26
2019-08-02 03:00:00 21.5 2 Este 6 Oeste 0 935.1 0.4 22
2019-08-02 02:00:00 21.9 2 Sur 28 Oeste 0 935.3 0.9 22
2019-08-02 01:00:00 23.5 13 Noroeste 35 Oeste 0 935 1.1 21
2019-08-02 00:00:00 25.1 15 Oeste 34 Oeste 0 934.7 1.4 19
2019-08-01 23:00:00 25.6 12 Oeste 19 Oeste 0 934.4 1.6 18
2019-08-01 22:00:00 28.7 13 Oeste 28 Oeste 0 933.9 1.1 16
2019-08-01 21:00:00 32.3 15 Oeste 33 Oeste 0 933.3 0.5 13
2019-08-01 20:00:00 33.5 17 Sudoeste 39 Sudoeste 0 932.8 -0.4 13
2019-08-01 19:00:00 34.5 -- -- -- -- 0 932.8 -0.7 11
2019-08-01 18:00:00 34.7 -- -- -- -- 0 932.8 -1.1 12
2019-08-01 17:00:00 34.4 -- -- -- -- 0 933.2 -1 13
2019-08-01 16:00:00 34.1 15 Sudoeste 37 Sudoeste 0 933.5 -0.9 14
2019-08-01 15:00:00 33.7 11 Sudoeste 30 Sudoeste 0 933.9 -- 14
2019-08-01 14:00:00 32.7 12 Sur 28 Sudoeste 0 934.2 -- 17
2019-08-01 13:00:00 29.9 8 Noroeste -- -- -- 934.4 -- 22
2019-08-01 12:00:00 -- -- -- -- -- -- -- -- --
2019-08-01 11:00:00 -- -- -- -- -- -- -- -- --
2019-08-01 10:00:00 -- -- -- -- -- -- -- -- --
2019-08-01 09:00:00 -- -- -- -- -- -- -- -- --
2019-08-01 08:00:00 -- -- -- -- -- -- -- -- --
2019-08-01 07:00:00 -- -- -- -- -- -- -- -- --
2019-08-01 06:00:00 -- -- -- -- -- -- -- -- --
2019-08-01 05:00:00 -- -- -- -- -- -- -- -- --
2019-08-01 04:00:00 -- -- -- -- -- -- -- -- --
2019-08-01 03:00:00 -- -- -- -- -- -- -- -- --
2019-08-01 02:00:00 -- -- -- -- -- -- -- -- --
2019-08-01 01:00:00 -- -- -- -- -- -- -- -- --
2019-08-01 00:00:00 -- -- -- -- -- -- -- -- --
2019-07-31 23:00:00 -- -- -- -- -- -- -- -- --
2019-07-31 22:00:00 -- -- -- -- -- -- -- -- --
2019-07-31 21:00:00 -- -- -- -- -- -- -- -- --
2019-07-31 20:00:00 -- -- -- -- -- -- -- -- --
2019-07-31 19:00:00 -- -- -- -- -- -- -- -- --
2019-07-31 18:00:00 -- -- -- -- -- -- -- -- --
2019-07-31 17:00:00 -- -- -- -- -- -- -- -- --
2019-07-31 16:00:00 -- -- -- -- -- -- -- -- --
2019-07-31 15:00:00 -- -- -- -- -- -- -- -- --
2019-07-31 14:00:00 -- -- -- -- -- -- -- -- --
2019-07-31 13:00:00 -- -- -- -- -- -- -- -- --
2019-07-31 12:00:00 -- -- -- -- -- -- -- -- --
2019-07-31 11:00:00 -- -- -- -- -- -- -- -- --
2019-07-31 10:00:00 -- -- -- -- -- -- -- -- --
2019-07-31 09:00:00 -- -- -- -- -- -- -- -- --
2019-07-31 08:00:00 -- -- -- -- -- -- -- -- --
2019-07-31 07:00:00 -- -- -- -- -- -- -- -- --
2019-07-31 06:00:00 -- -- -- -- -- -- -- -- --
2019-07-31 05:00:00 -- -- -- -- -- -- -- -- --
2019-07-31 04:00:00 -- -- -- -- -- -- -- -- --
2019-07-31 03:00:00 -- -- -- -- -- -- -- -- --
2019-07-31 02:00:00 -- -- -- -- -- -- -- -- --
2019-07-31 01:00:00 -- -- -- -- -- -- -- -- --
2019-07-31 00:00:00 -- -- -- -- -- -- -- -- --
2019-07-30 23:00:00 -- -- -- -- -- -- -- -- --
2019-07-30 22:00:00 -- -- -- -- -- -- -- -- --
2019-07-30 21:00:00 -- -- -- -- -- -- -- -- --
2019-07-30 20:00:00 -- -- -- -- -- -- -- -- --
2019-07-30 19:00:00 -- -- -- -- -- -- -- -- --
2019-07-30 18:00:00 -- -- -- -- -- -- -- -- --
2019-07-30 17:00:00 -- -- -- -- -- -- -- -- --
2019-07-30 16:00:00 -- -- -- -- -- -- -- -- --
2019-07-30 15:00:00 -- -- -- -- -- -- -- -- --
2019-07-30 14:00:00 -- -- -- -- -- -- -- -- --
2019-07-30 13:00:00 -- -- -- -- -- -- -- -- --
2019-07-30 12:00:00 -- -- -- -- -- -- -- -- --
2019-07-30 11:00:00 -- -- -- -- -- -- -- -- --
2019-07-30 10:00:00 -- -- -- -- -- -- -- -- --
2019-07-30 09:00:00 -- -- -- -- -- -- -- -- --
2019-07-30 08:00:00 -- -- -- -- -- -- -- -- --
2019-07-30 07:00:00 -- -- -- -- -- -- -- -- --
2019-07-30 06:00:00 -- -- -- -- -- -- -- -- --
2019-07-30 05:00:00 -- -- -- -- -- -- -- -- --
2019-07-30 04:00:00 -- -- -- -- -- -- -- -- --
2019-07-30 03:00:00 -- -- -- -- -- -- -- -- --
2019-07-30 02:00:00 -- -- -- -- -- -- -- -- --
2019-07-30 01:00:00 -- -- -- -- -- -- -- -- --
2019-07-30 00:00:00 -- -- -- -- -- -- -- -- --
2019-07-29 23:00:00 -- -- -- -- -- -- -- -- --
2019-07-29 22:00:00 -- -- -- -- -- -- -- -- --
2019-07-29 21:00:00 -- -- -- -- -- -- -- -- --
2019-07-29 20:00:00 -- -- -- -- -- -- -- -- --
2019-07-29 19:00:00 -- -- -- -- -- -- -- -- --
2019-07-29 18:00:00 -- -- -- -- -- -- -- -- --
2019-07-29 17:00:00 -- -- -- -- -- -- -- -- --
2019-07-29 16:00:00 -- -- -- -- -- -- -- -- --
2019-07-29 15:00:00 -- -- -- -- -- -- -- -- --
2019-07-29 14:00:00 -- -- -- -- -- -- -- -- --
2019-07-29 13:00:00 -- -- -- -- -- -- -- -- --
2019-07-29 12:00:00 -- -- -- -- -- -- -- -- --
2019-07-29 11:00:00 -- -- -- -- -- -- -- -- --
2019-07-29 10:00:00 -- -- -- -- -- -- -- -- --
2019-07-29 09:00:00 -- -- -- -- -- -- -- -- --
2019-07-29 08:00:00 -- -- -- -- -- -- -- -- --
2019-07-29 07:00:00 -- -- -- -- -- -- -- -- --
2019-07-29 06:00:00 -- -- -- -- -- -- -- -- --
2019-07-29 05:00:00 -- -- -- -- -- -- -- -- --
2019-07-29 04:00:00 -- -- -- -- -- -- -- -- --
2019-07-29 03:00:00 -- -- -- -- -- -- -- -- --
2019-07-29 02:00:00 -- -- -- -- -- -- -- -- --
2019-07-29 01:00:00 -- -- -- -- -- -- -- -- --
2019-07-29 00:00:00 -- -- -- -- -- -- -- -- --
2019-07-28 23:00:00 -- -- -- -- -- -- -- -- --
2019-07-28 22:00:00 -- -- -- -- -- -- -- -- --
2019-07-28 21:00:00 -- -- -- -- -- -- -- -- --
2019-07-28 20:00:00 -- -- -- -- -- -- -- -- --
2019-07-28 19:00:00 -- -- -- -- -- -- -- -- --
2019-07-28 18:00:00 -- -- -- -- -- -- -- -- --
2019-07-28 17:00:00 -- -- -- -- -- -- -- -- --
2019-07-28 16:00:00 -- -- -- -- -- -- -- -- --
2019-07-28 15:00:00 -- -- -- -- -- -- -- -- --
2019-07-28 14:00:00 -- -- -- -- -- -- -- -- --
2019-07-28 13:00:00 -- -- -- -- -- -- -- -- --
2019-07-28 12:00:00 -- -- -- -- -- -- -- -- --
2019-07-28 11:00:00 -- -- -- -- -- -- -- -- --
2019-07-28 10:00:00 -- -- -- -- -- -- -- -- --
2019-07-28 09:00:00 -- -- -- -- -- -- -- -- --
2019-07-28 08:00:00 -- -- -- -- -- -- -- -- --
2019-07-28 07:00:00 -- -- -- -- -- -- -- -- --
2019-07-28 06:00:00 -- -- -- -- -- -- -- -- --
2019-07-28 05:00:00 -- -- -- -- -- -- -- -- --
2019-07-28 04:00:00 -- -- -- -- -- -- -- -- --
2019-07-28 03:00:00 -- -- -- -- -- -- -- -- --
2019-07-28 02:00:00 -- -- -- -- -- -- -- -- --
2019-07-28 01:00:00 -- -- -- -- -- -- -- -- --
2019-07-28 00:00:00 -- -- -- -- -- -- -- -- --
2019-07-27 23:00:00 -- -- -- -- -- -- -- -- --
2019-07-26 12:00:00 -- -- -- -- -- -- -- -- --
2019-07-26 11:00:00 -- -- -- -- -- -- -- -- --
2019-07-26 10:00:00 -- -- -- -- -- -- -- -- --
2019-07-26 09:00:00 -- -- -- -- -- -- -- -- --
2019-07-26 08:00:00 -- -- -- -- -- -- -- -- --
2019-07-26 07:00:00 -- -- -- -- -- -- -- -- --
2019-07-26 06:00:00 -- -- -- -- -- -- -- -- --
2019-07-26 05:00:00 -- -- -- -- -- -- -- -- --
2019-07-26 04:00:00 -- -- -- -- -- -- -- -- --
2019-07-26 03:00:00 -- -- -- -- -- -- -- -- --
2019-07-26 02:00:00 -- -- -- -- -- -- -- -- --
2019-07-26 01:00:00 -- -- -- -- -- -- -- -- --
2019-07-26 00:00:00 -- -- -- -- -- -- -- -- --
2019-07-25 23:00:00 -- -- -- -- -- -- -- -- --
2019-07-25 22:00:00 -- -- -- -- -- -- -- -- --
2019-07-25 21:00:00 -- -- -- -- -- -- -- -- --
2019-07-25 20:00:00 -- -- -- -- -- -- -- -- --
2019-07-25 19:00:00 -- -- -- -- -- -- -- -- --
2019-07-25 18:00:00 -- -- -- -- -- -- -- -- --
2019-07-25 17:00:00 -- -- -- -- -- -- -- -- --
2019-07-25 16:00:00 -- -- -- -- -- -- -- -- --
2019-07-25 15:00:00 -- -- -- -- -- -- -- -- --
2019-07-25 14:00:00 -- -- -- -- -- -- -- -- --
2019-07-25 13:00:00 -- -- -- -- -- -- -- -- --
2019-07-25 12:00:00 -- -- -- -- -- -- -- -- --
2019-07-25 11:00:00 -- -- -- -- -- -- -- -- --
2019-07-25 10:00:00 -- -- -- -- -- -- -- -- --
2019-07-25 09:00:00 -- -- -- -- -- -- -- -- --
2019-07-25 08:00:00 -- -- -- -- -- -- -- -- --
2019-07-25 07:00:00 -- -- -- -- -- -- -- -- --
2019-07-25 06:00:00 -- -- -- -- -- -- -- -- --
2019-07-25 05:00:00 -- -- -- -- -- -- -- -- --
2019-07-25 04:00:00 -- -- -- -- -- -- -- -- --
2019-07-25 03:00:00 -- -- -- -- -- -- -- -- --
2019-07-25 02:00:00 -- -- -- -- -- -- -- -- --
2019-07-25 01:00:00 -- -- -- -- -- -- -- -- --
2019-07-25 00:00:00 -- -- -- -- -- -- -- -- --
2019-07-24 23:00:00 -- -- -- -- -- -- -- -- --
2019-07-24 22:00:00 -- -- -- -- -- -- -- -- --
2019-07-24 21:00:00 -- -- -- -- -- -- -- -- --
2019-07-24 20:00:00 -- -- -- -- -- -- -- -- --
2019-07-24 19:00:00 -- -- -- -- -- -- -- -- --
2019-07-24 18:00:00 -- -- -- -- -- -- -- -- --
2019-07-24 17:00:00 -- -- -- -- -- -- -- -- --
2019-07-24 16:00:00 -- -- -- -- -- -- -- -- --
2019-07-24 15:00:00 -- -- -- -- -- -- -- -- --
2019-07-24 14:00:00 -- -- -- -- -- -- -- -- --
2019-07-24 13:00:00 -- -- -- -- -- -- -- -- --
2019-07-24 12:00:00 -- -- -- -- -- -- -- -- --
2019-07-24 11:00:00 -- -- -- -- -- -- -- -- --
2019-07-24 10:00:00 -- -- -- -- -- -- -- -- --
2019-07-24 09:00:00 -- -- -- -- -- -- -- -- --
2019-07-24 08:00:00 -- -- -- -- -- -- -- -- --
2019-07-24 07:00:00 -- -- -- -- -- -- -- -- --
2019-07-24 06:00:00 -- -- -- -- -- -- -- -- --
2019-07-24 05:00:00 -- -- -- -- -- -- -- -- --
2019-07-24 04:00:00 -- -- -- -- -- -- -- -- --
2019-07-24 03:00:00 -- -- -- -- -- -- -- -- --
2019-07-24 02:00:00 -- -- -- -- -- -- -- -- --
2019-07-24 01:00:00 -- -- -- -- -- -- -- -- --
2019-07-24 00:00:00 -- -- -- -- -- -- -- -- --
2019-07-23 23:00:00 -- -- -- -- -- -- -- -- --
2019-07-23 22:00:00 -- -- -- -- -- -- -- -- --
2019-07-23 21:00:00 -- -- -- -- -- -- -- -- --
2019-07-23 20:00:00 -- -- -- -- -- -- -- -- --
2019-07-23 19:00:00 -- -- -- -- -- -- -- -- --
2019-07-23 18:00:00 -- -- -- -- -- -- -- -- --
2019-07-23 17:00:00 -- -- -- -- -- -- -- -- --
2019-07-23 16:00:00 -- -- -- -- -- -- -- -- --
2019-07-23 15:00:00 -- -- -- -- -- -- -- -- --
2019-07-23 14:00:00 -- -- -- -- -- -- -- -- --
2019-07-23 13:00:00 -- -- -- -- -- -- -- -- --
2019-07-23 12:00:00 -- -- -- -- -- -- -- -- --
2019-07-23 11:00:00 -- -- -- -- -- -- -- -- --
2019-07-23 10:00:00 -- -- -- -- -- -- -- -- --
2019-07-23 09:00:00 -- -- -- -- -- -- -- -- --
2019-07-23 08:00:00 -- -- -- -- -- -- -- -- --
2019-07-23 07:00:00 -- -- -- -- -- -- -- -- --
2019-07-23 06:00:00 -- -- -- -- -- -- -- -- --
2019-07-23 05:00:00 -- -- -- -- -- -- -- -- --
2019-07-23 04:00:00 -- -- -- -- -- -- -- -- --
2019-07-23 03:00:00 -- -- -- -- -- -- -- -- --
2019-07-23 02:00:00 -- -- -- -- -- -- -- -- --
2019-07-23 01:00:00 -- -- -- -- -- -- -- -- --
2019-07-23 00:00:00 -- -- -- -- -- -- -- -- --
2019-07-22 23:00:00 -- -- -- -- -- -- -- -- --
2019-07-22 22:00:00 -- -- -- -- -- -- -- -- --
2019-07-22 21:00:00 -- -- -- -- -- -- -- -- --
2019-07-22 20:00:00 -- -- -- -- -- -- -- -- --
2019-07-22 19:00:00 -- -- -- -- -- -- -- -- --
2019-07-22 18:00:00 -- -- -- -- -- -- -- -- --
2019-07-22 17:00:00 -- -- -- -- -- -- -- -- --
2019-07-22 16:00:00 -- -- -- -- -- -- -- -- --
2019-07-22 15:00:00 -- -- -- -- -- -- -- -- --
2019-07-22 14:00:00 -- -- -- -- -- -- -- -- --
2019-07-22 13:00:00 -- -- -- -- -- -- -- -- --
2019-07-22 12:00:00 -- -- -- -- -- -- -- -- --
2019-07-22 11:00:00 -- -- -- -- -- -- -- -- --
2019-07-22 10:00:00 -- -- -- -- -- -- -- -- --
2019-07-22 09:00:00 -- -- -- -- -- -- -- -- --
2019-07-22 08:00:00 -- -- -- -- -- -- -- -- --
2019-07-22 07:00:00 -- -- -- -- -- -- -- -- --
2019-07-22 06:00:00 -- -- -- -- -- -- -- -- --
2019-07-22 05:00:00 22.8 24 Este 40 Este 0 940.1 -0.4 45
2019-07-22 04:00:00 23.7 21 Este 42 Este 0 940.6 -0.2 40
2019-07-22 03:00:00 24.8 25 Este 45 Este 0 940.5 0 35
2019-07-22 02:00:00 26 28 Este 44 Este 0 940.5 1.2 30
2019-07-22 01:00:00 27.1 19 Este 45 Este 0 940.8 2.5 31
2019-07-22 00:00:00 28.4 21 Este 49 Sudeste 0 940.5 2.8 31
2019-07-21 23:00:00 30.2 33 Este 49 Este 0 939.3 1.9 30
2019-07-21 22:00:00 32.9 24 Este 42 Este 0 938.3 1 19
2019-07-21 21:00:00 34.5 27 Este 46 Este 0 937.7 0.2 20
2019-07-21 20:00:00 36 19 Este 41 Este 0 937.4 -0.7 17
2019-07-21 19:00:00 36.7 19 Este 36 Este 0 937.3 -1.3 16
2019-07-21 18:00:00 37.3 17 Este 32 Sudeste 0 937.5 -1.3 15
2019-07-21 17:00:00 36.9 15 Este 33 Este 0 938.1 -1 16
2019-07-21 16:00:00 36.9 10 Sudeste 30 Este 0 938.6 -0.9 17
2019-07-21 15:00:00 36 5 Sur 33 Nordeste 0 938.8 -0.5 18
2019-07-21 14:00:00 34.5 9 Este 24 Nordeste 0 939.1 -0.2 20
2019-07-21 13:00:00 33.3 6 Sudeste 15 Sur 0 939.5 0.2 22
2019-07-21 12:00:00 30.7 6 Este 13 Sudeste 0 939.3 0.5 27
2019-07-21 11:00:00 28.3 3 Sudeste 12 Sudeste 0 939.3 1.1 31
2019-07-21 10:00:00 25.2 5 Sudeste 24 Este 0 939.3 1.4 38
2019-07-21 09:00:00 22.8 6 Este 22 Este 0 938.8 1.1 41
2019-07-21 08:00:00 21.2 5 Este 19 Este 0 938.2 0.8 41
2019-07-21 07:00:00 21.4 4 Este 6 Este 0 937.9 0.4 39
2019-07-21 06:00:00 22.6 3 Sudeste 21 Este 0 937.7 0.1 36
2019-07-21 05:00:00 22.9 8 Este 28 Este 0 937.4 -0.1 35
2019-07-21 04:00:00 23.7 9 Este 26 Este 0 937.5 0.2 36
2019-07-21 03:00:00 25.6 10 Este 18 Sur 0 937.6 1.1 33
2019-07-21 02:00:00 27.3 10 Este 19 Sudeste 0 937.5 1.7 31
2019-07-21 01:00:00 29.4 11 Sudeste 24 Sudeste 0 937.3 2.5 29
2019-07-21 00:00:00 31.4 15 Norte 24 Norte 0 936.5 2.3 26